Weather History for Stevens Point, WI

Change the Weather History Date:

Tuesday, April 29, 2014

  Actual Average Record
Temperature  
Mean Temperature 38 °F -  
Max Temperature 40 °F 62 °F 90 °F (1952)
Min Temperature 35 °F 40 °F 20 °F (1958)
Degree Days  
Heating Degree Days 28    
Moisture  
Dew Point 36 °F    
Average Humidity 94    
Maximum Humidity 99    
Minimum Humidity 83    
Precipitation  
Precipitation 0.39 in - - ()
Sea Level Pressure  
Sea Level Pressure 29.61 in    
Wind  
Wind Speed 15 mph (ENE)    
Max Wind Speed 22 mph    
Max Gust Speed 31 mph    
Visibility 8 miles    
Events Rain    
Averages and records for this station are not official NWS values.
T = Trace of Precipitation, MM = Missing Value Source: NWS Daily Summary

Daily Weather History Graph

Daily Weather History Graph

Search for Another Location

Airport:

Trip Planner

Search our weather history database for the weather conditions in past years. The results will help you decide how hot, cold, wet, or windy it might be!

Date:

Astronomy

Apr. 29, 2014 Rise Set
Actual Time 5:51 AM CDT 8:00 PM CDT
Civil Twilight 5:19 AM CDT 8:32 PM CDT
Nautical Twilight 4:40 AM CDT 9:11 PM CDT
Astronomical Twilight 3:57 AM CDT 9:55 PM CDT
Moon 6:09 AM CDT (4/29) 8:41 PM CDT (4/29)
Length of Visible Light 15h 12m
Length of Day
14h 08m
New Moon, 0% of the Moon is Illuminated
Apr 29
New Moon
May 6
First Quarter
May 14
Full
May 21
Last Quarter
May 28
New

Hourly Weather History & Observations

Time (CDT) Temp. Windchill Dew Point Humidity Pressure Visibility Wind Dir Wind Speed Gust Speed Precip Events Conditions
12:15 AM 38.3 °F 30.1 °F 33.8 °F 84% 29.73 in 10.0 mi ENE 13.8 mph 25.3 mph N/A   Overcast
12:35 AM 38.3 °F 28.1 °F 33.8 °F 84% 29.71 in 10.0 mi ENE 20.7 mph 26.5 mph N/A   Overcast
12:55 AM 37.9 °F 27.3 °F 34.0 °F 86% 29.70 in 10.0 mi ENE 21.9 mph 31.1 mph N/A   Overcast
1:15 AM 37.8 °F 27.7 °F 33.8 °F 86% 29.69 in 10.0 mi ENE 19.6 mph 29.9 mph N/A   Overcast
1:35 AM 37.8 °F 27.1 °F 33.4 °F 84% 29.69 in 10.0 mi ENE 21.9 mph 31.1 mph N/A   Overcast
1:55 AM 37.8 °F 27.7 °F 33.1 °F 83% 29.67 in 10.0 mi ENE 19.6 mph 28.8 mph N/A   Overcast
2:15 AM 37.8 °F 28.3 °F 33.3 °F 84% 29.67 in 10.0 mi ENE 17.3 mph 27.6 mph N/A   Overcast
2:35 AM 37.6 °F 27.7 °F 33.1 °F 84% 29.66 in 10.0 mi ENE 18.4 mph 29.9 mph N/A   Overcast
2:55 AM 37.6 °F 27.4 °F 33.1 °F 84% 29.66 in 10.0 mi ENE 19.6 mph 27.6 mph N/A   Overcast
3:15 AM 37.4 °F 28.5 °F 33.4 °F 86% 29.65 in 10.0 mi ENE 15.0 mph 26.5 mph N/A   Light Drizzle
3:35 AM 36.9 °F 27.1 °F 34.2 °F 90% 29.64 in 10.0 mi ENE 17.3 mph 23.0 mph N/A Rain Light Rain
3:55 AM 36.5 °F 26.3 °F 34.7 °F 93% 29.63 in 7.0 mi ENE 18.4 mph 26.5 mph 0.02 in Rain Light Rain
4:15 AM 36.5 °F 25.7 °F 34.7 °F 93% 29.63 in 7.0 mi ENE 20.7 mph 29.9 mph 0.01 in Rain Light Rain
4:35 AM 36.5 °F 27.0 °F 34.7 °F 93% 29.62 in 10.0 mi ENE 16.1 mph 23.0 mph 0.02 in Rain Light Rain
4:55 AM 36.5 °F 27.8 °F 34.7 °F 93% 29.62 in 5.0 mi ENE 13.8 mph 23.0 mph 0.06 in Rain Light Rain
5:15 AM 36.1 °F 25.5 °F 34.2 °F 93% 29.61 in 7.0 mi ENE 19.6 mph 26.5 mph 0.02 in Rain Light Rain
5:35 AM 36.0 °F 25.6 °F 34.0 °F 93% 29.61 in 5.0 mi ENE 18.4 mph 27.6 mph 0.06 in Rain Rain
5:55 AM 35.8 °F 25.7 °F 33.8 °F 92% 29.60 in 7.0 mi ENE 17.3 mph 26.5 mph 0.08 in Rain Light Rain
6:15 AM 35.6 °F 25.9 °F 33.8 °F 93% 29.60 in 5.0 mi ENE 16.1 mph 24.2 mph N/A Rain Light Rain
6:35 AM 35.6 °F 25.9 °F 33.8 °F 93% 29.60 in 5.0 mi ENE 16.1 mph 25.3 mph 0.02 in Rain Light Rain
6:55 AM 35.8 °F 27.3 °F 34.0 °F 93% 29.60 in 5.0 mi ENE 12.7 mph 26.5 mph 0.02 in Rain Light Rain
7:15 AM 35.6 °F 26.2 °F 34.0 °F 94% 29.59 in 4.0 mi ENE 15.0 mph - 0.02 in Rain Light Rain
7:35 AM 35.6 °F 25.9 °F 33.8 °F 93% 29.59 in 4.0 mi ENE 16.1 mph 25.3 mph 0.04 in Rain Rain
7:55 AM 35.4 °F 26.4 °F 33.8 °F 94% 29.59 in 10.0 mi ENE 13.8 mph 20.7 mph 0.05 in Rain Light Rain
8:15 AM 35.6 °F 26.2 °F 34.2 °F 94% 29.59 in 10.0 mi ENE 15.0 mph 19.6 mph 0.01 in Rain Light Rain
8:35 AM 36.0 °F 27.1 °F 34.2 °F 93% 29.58 in 10.0 mi ENE 13.8 mph 21.9 mph 0.01 in Rain Light Rain
8:55 AM 36.0 °F 27.1 °F 34.3 °F 94% 29.58 in 10.0 mi ENE 13.8 mph 19.6 mph 0.01 in Rain Light Rain
9:15 AM 35.8 °F 26.1 °F 33.8 °F 92% 29.59 in 10.0 mi ENE 16.1 mph 21.9 mph N/A Rain Light Rain
9:35 AM 35.2 °F 26.2 °F 33.4 °F 93% 29.59 in 10.0 mi ENE 13.8 mph 21.9 mph 0.01 in Rain Light Rain
10:15 AM 35.1 °F 25.9 °F 33.3 °F 93% 29.58 in 10.0 mi ENE 13.8 mph 23.0 mph N/A Rain Light Rain
10:35 AM 35.4 °F 27.3 °F 33.6 °F 93% 29.58 in 10.0 mi ENE 11.5 mph 19.6 mph N/A   Light Drizzle
10:55 AM 35.1 °F 25.5 °F 33.3 °F 93% 29.57 in 10.0 mi ENE 15.0 mph 23.0 mph N/A   Overcast
11:15 AM 35.1 °F 26.9 °F 33.8 °F 95% 29.58 in 10.0 mi ENE 11.5 mph 23.0 mph N/A   Overcast
11:35 AM 35.6 °F 26.6 °F 34.3 °F 95% 29.58 in 3.0 mi ENE 13.8 mph - N/A   Light Drizzle
11:55 AM 36.1 °F 27.3 °F 35.1 °F 96% 29.57 in 3.0 mi ENE 13.8 mph 17.3 mph N/A   Overcast
12:15 PM 36.7 °F 28.4 °F 35.8 °F 97% 29.57 in 5.0 mi ENE 12.7 mph - N/A   Overcast
12:35 PM 37.4 °F 30.3 °F 36.5 °F 97% 29.57 in 7.0 mi ENE 10.4 mph - N/A   Overcast
12:55 PM 37.6 °F 29.6 °F 36.5 °F 96% 29.56 in 7.0 mi ENE 12.7 mph 17.3 mph N/A   Overcast
1:15 PM 38.1 °F 30.7 °F 37.0 °F 96% 29.55 in 7.0 mi NE 11.5 mph - N/A   Overcast
1:35 PM 38.5 °F 30.7 °F 37.4 °F 96% 29.56 in 7.0 mi ENE 12.7 mph 17.3 mph N/A   Overcast
1:55 PM 38.7 °F 30.9 °F 37.4 °F 95% 29.57 in 10.0 mi ENE 12.7 mph 17.3 mph N/A   Overcast
2:15 PM 38.8 °F 32.6 °F 37.4 °F 95% 29.57 in 7.0 mi ENE 9.2 mph - N/A   Overcast
2:35 PM 39.2 °F 33.0 °F 37.6 °F 94% 29.57 in 10.0 mi NE 9.2 mph - N/A   Overcast
2:55 PM 38.8 °F 30.8 °F 37.6 °F 95% 29.58 in 10.0 mi NE 13.8 mph - N/A   Overcast
3:15 PM 39.2 °F 33.6 °F 37.9 °F 95% 29.57 in 10.0 mi NE 8.1 mph - N/A   Overcast
3:35 PM 39.2 °F 33.0 °F 38.3 °F 97% 29.58 in 7.0 mi NE 9.2 mph - N/A   Light Drizzle
3:55 PM 39.4 °F 33.2 °F 38.5 °F 97% 29.58 in 10.0 mi NE 9.2 mph - N/A   Overcast
4:15 PM 39.6 °F 34.0 °F 38.5 °F 96% 29.59 in 10.0 mi ENE 8.1 mph - N/A Rain Light Rain
4:35 PM 39.4 °F 32.7 °F 38.5 °F 97% 29.59 in 10.0 mi NE 10.4 mph - 0.01 in Rain Light Rain
5:15 PM 39.6 °F 34.7 °F 38.7 °F 97% 29.60 in 7.0 mi ENE 6.9 mph - 0.01 in Rain Rain
5:35 PM 40.1 °F 34.7 °F 39.2 °F 97% 29.61 in 10.0 mi NE 8.1 mph - 0.03 in Rain Light Rain
5:55 PM 40.1 °F 34.7 °F 39.0 °F 96% 29.62 in 7.0 mi ENE 8.1 mph - 0.04 in Rain Light Rain
6:15 PM 40.1 °F 34.1 °F 39.2 °F 97% 29.61 in 10.0 mi NE 9.2 mph - 0.01 in Rain Light Rain
6:35 PM 40.1 °F 34.7 °F 39.2 °F 97% 29.62 in 10.0 mi NE 8.1 mph - 0.02 in Rain Rain
6:55 PM 40.1 °F 34.1 °F 39.2 °F 97% 29.63 in 10.0 mi NE 9.2 mph - 0.04 in Rain Rain
7:15 PM 40.1 °F 35.3 °F 39.2 °F 97% 29.63 in 7.0 mi NE 6.9 mph - 0.01 in Rain Rain
7:35 PM 40.1 °F 34.7 °F 39.2 °F 97% 29.64 in 10.0 mi NE 8.1 mph - 0.03 in Rain Light Rain
7:55 PM 39.7 °F 34.9 °F 39.2 °F 98% 29.64 in 10.0 mi NE 6.9 mph - 0.05 in Rain Light Rain
8:15 PM 39.7 °F 34.9 °F 39.2 °F 98% 29.64 in 10.0 mi NE 6.9 mph - N/A   Light Drizzle
8:35 PM 39.6 °F 33.5 °F 38.8 °F 97% 29.64 in 10.0 mi NE 9.2 mph - N/A   Light Drizzle
8:55 PM 39.6 °F 34.0 °F 38.8 °F 97% 29.64 in 10.0 mi NE 8.1 mph - N/A Rain Light Rain
9:15 PM 39.6 °F 34.7 °F 38.8 °F 97% 29.64 in 10.0 mi NE 6.9 mph - N/A Rain Light Rain
9:35 PM 39.6 °F 34.7 °F 38.8 °F 97% 29.64 in 10.0 mi NE 6.9 mph - N/A Rain Light Rain
9:55 PM 39.6 °F 34.7 °F 39.2 °F 99% 29.64 in 10.0 mi NE 6.9 mph - N/A   Light Drizzle
10:15 PM 39.6 °F 34.0 °F 39.2 °F 99% 29.64 in 10.0 mi NE 8.1 mph - N/A   Light Drizzle
10:35 PM 39.6 °F 36.3 °F 39.2 °F 99% 29.63 in 7.0 mi NE 4.6 mph - N/A   Light Drizzle
10:55 PM 39.6 °F 35.4 °F 39.2 °F 99% 29.63 in 5.0 mi ENE 5.8 mph - N/A   Light Drizzle
11:15 PM 39.6 °F 34.7 °F 39.2 °F 99% 29.63 in 5.0 mi ENE 6.9 mph - N/A   Overcast
11:35 PM 39.6 °F 35.4 °F 39.2 °F 99% 29.64 in 4.0 mi East 5.8 mph - N/A   Overcast
11:55 PM 39.6 °F 35.4 °F 39.2 °F 99% 29.64 in 3.0 mi ENE 5.8 mph - N/A   Overcast